Walsh, Canada
Current Conditions -  °F | °C
As of 1:00 PM on Monday 26 Jan 2015 (Local Time) from CYXH Reporting Station
Broken Clouds Broken Clouds  
Wind Chill: 52°   Ceiling: 26000
Heat Index: 52°   Visibility: 30mi
Dew Point: 37°   Wind: 7mph
Humidity: 58%   Direction: 230°SW
Pressure: 29.85"   Gusts: NA
Location:  49.95°N, 110.03°W
Report Text: CYXH 262000Z 23006KT 30SM SCT170 BKN260 11/03 A2985 RMK AC3CI4 SLP126 DENSITY ALT 2400FT
Loading
Personal Weather Stations






























Interactive Weather Map New forecast layout! Learn more

10-Day Weather Forecast

Advertisements
Track Severe Weather on mobile